Time;durP1;ratioP1;P1;durP2;ratioP2;P2;SDS_P1;SDS_P2;PMS_P1;PMS_P2;Temp;Humidity;BMP_temperature;BMP_pressure;BME280_temperature;BME280_humidity;BME280_pressure;Samples;Min_cycle;Max_cycle;Signal;HPM_P1;HPM_P2
2021/03/16 00:00:40;;;;;;;6.50;5.88;;;4.20;99.90;;;;;;5052005;28;20685;-39
2021/03/16 00:03:07;;;;;;;7.18;6.57;;;4.20;99.90;;;;;;5052204;28;20215;-38
2021/03/16 00:05:34;;;;;;;6.32;5.22;;;4.20;99.90;;;;;;5051897;28;20298;-38
2021/03/16 00:08:01;;;;;;;5.68;5.18;;;4.30;99.90;;;;;;5051769;28;20211;-39
2021/03/16 00:10:29;;;;;;;6.38;5.75;;;4.30;99.90;;;;;;5052018;28;20258;-38
2021/03/16 00:12:56;;;;;;;7.93;5.43;;;4.30;99.90;;;;;;5051929;28;20250;-38
2021/03/16 00:15:23;;;;;;;7.57;5.47;;;4.40;99.90;;;;;;5051946;28;20208;-38
2021/03/16 00:17:50;;;;;;;7.30;5.45;;;4.40;99.90;;;;;;5051740;28;20251;-38
2021/03/16 00:20:17;;;;;;;5.75;5.22;;;4.40;99.90;;;;;;5051616;28;20297;-38
2021/03/16 00:22:44;;;;;;;7.50;4.85;;;4.40;99.90;;;;;;5051863;28;20250;-38
2021/03/16 00:25:15;;;;;;;6.38;5.78;;;4.40;99.90;;;;;;5051924;28;20204;-38
2021/03/16 00:27:45;;;;;;;5.32;4.85;;;4.40;99.90;;;;;;5051679;28;20231;-39
2021/03/16 00:30:13;;;;;;;7.07;5.88;;;4.30;99.90;;;;;;5051800;28;20211;-39
2021/03/16 00:32:40;;;;;;;6.28;5.68;;;4.30;99.90;;;;;;5051568;28;20645;-39
2021/03/16 00:35:08;;;;;;;6.13;5.40;;;4.30;99.90;;;;;;5051442;28;20257;-39
2021/03/16 00:37:36;;;;;;;7.35;6.13;;;4.30;99.90;;;;;;5051532;28;20639;-39
2021/03/16 00:40:04;;;;;;;7.53;5.97;;;4.30;99.90;;;;;;5051432;28;20260;-39
2021/03/16 00:42:30;;;;;;;6.28;5.68;;;4.30;99.90;;;;;;5051128;28;20212;-39
2021/03/16 00:44:58;;;;;;;9.00;6.68;;;4.30;99.90;;;;;;5051522;28;20251;-39
2021/03/16 00:47:25;;;;;;;8.23;5.95;;;4.30;99.90;;;;;;5051223;28;20383;-39
2021/03/16 00:49:52;;;;;;;6.15;5.60;;;4.30;99.90;;;;;;5051542;28;20235;-39
2021/03/16 00:52:19;;;;;;;6.78;5.38;;;4.20;99.90;;;;;;5051295;28;20216;-38
2021/03/16 00:54:46;;;;;;;10.38;5.82;;;4.30;99.90;;;;;;5051241;28;20273;-39
2021/03/16 00:57:13;;;;;;;7.40;6.70;;;4.30;99.90;;;;;;5051487;28;20303;-39
2021/03/16 00:59:40;;;;;;;8.43;6.40;;;4.30;99.90;;;;;;5051026;28;20270;-39
2021/03/16 01:02:09;;;;;;;7.15;6.28;;;4.30;99.90;;;;;;5051131;28;20212;-39
2021/03/16 01:04:37;;;;;;;6.28;5.68;;;4.30;99.90;;;;;;5051468;28;20214;-39
2021/03/16 01:07:05;;;;;;;8.30;6.72;;;4.30;99.90;;;;;;5051410;28;20219;-39
2021/03/16 01:09:32;;;;;;;7.32;6.13;;;4.20;99.90;;;;;;5051216;28;20244;-39
2021/03/16 01:11:59;;;;;;;7.25;6.10;;;4.20;99.90;;;;;;5051090;28;20322;-39
2021/03/16 01:14:26;;;;;;;13.23;5.90;;;4.20;99.90;;;;;;5051251;28;20247;-39
2021/03/16 01:16:53;;;;;;;8.45;6.65;;;4.20;99.90;;;;;;5050791;28;20600;-39
2021/03/16 01:19:21;;;;;;;7.60;6.63;;;4.20;99.90;;;;;;5051052;28;20234;-39
2021/03/16 01:21:48;;;;;;;7.28;6.57;;;4.20;99.90;;;;;;5051200;28;20222;-39
2021/03/16 01:24:15;;;;;;;9.02;6.57;;;4.20;99.90;;;;;;5051031;28;20239;-39
2021/03/16 01:26:42;;;;;;;8.80;6.10;;;4.20;99.90;;;;;;5051163;28;20319;-39
2021/03/16 01:29:09;;;;;;;8.38;6.25;;;4.20;99.90;;;;;;5050878;28;20235;-39
2021/03/16 01:31:36;;;;;;;6.88;6.28;;;4.30;99.90;;;;;;5050873;28;20215;-39
2021/03/16 01:34:03;;;;;;;7.50;6.75;;;4.30;99.90;;;;;;5051462;28;20219;-39
2021/03/16 01:36:31;;;;;;;11.95;6.85;;;4.30;99.90;;;;;;5050798;28;20697;-39
2021/03/16 01:38:58;;;;;;;8.07;6.13;;;4.30;99.90;;;;;;5050780;28;20258;-39
2021/03/16 01:41:25;;;;;;;6.57;5.97;;;4.30;99.90;;;;;;5050998;28;20212;-39
2021/03/16 01:43:52;;;;;;;14.60;6.00;;;4.20;99.90;;;;;;5050714;28;20269;-38
2021/03/16 01:46:19;;;;;;;8.13;5.50;;;4.20;99.90;;;;;;5050697;28;20302;-38
2021/03/16 01:48:47;;;;;;;7.65;6.85;;;4.20;99.90;;;;;;5050880;28;20299;-38
2021/03/16 01:51:14;;;;;;;7.32;6.38;;;4.10;99.90;;;;;;5050989;28;20664;-38
2021/03/16 01:53:42;;;;;;;11.40;6.50;;;4.20;99.90;;;;;;5050675;28;20247;-38
2021/03/16 01:56:23;;;;;;;8.23;6.25;;;4.10;99.90;;;;;;5051921;28;20215;-38
2021/03/16 01:58:55;;;;;;;7.32;5.90;;;4.10;99.90;;;;;;5054331;28;20299;-38
2021/03/16 02:01:23;;;;;;;13.23;6.65;;;4.10;99.90;;;;;;5054612;28;20306;-38
2021/03/16 02:03:52;;;;;;;7.70;5.88;;;4.10;99.90;;;;;;5054378;28;20297;-38
2021/03/16 02:06:28;;;;;;;7.63;6.35;;;4.10;99.90;;;;;;5054165;28;20726;-38
2021/03/16 02:09:09;;;;;;;9.38;5.88;;;4.10;99.90;;;;;;5054245;28;20239;-38
2021/03/16 02:11:45;;;;;;;9.38;7.18;;;4.10;99.90;;;;;;5054418;28;20346;-38
2021/03/16 02:17:37;;;;;;;12.68;6.35;;;4.10;99.90;;;;;;5054359;28;20258;-39
2021/03/16 02:20:25;;;;;;;12.20;6.55;;;4.10;99.90;;;;;;5053975;28;20315;-39
2021/03/16 02:22:52;;;;;;;8.55;6.07;;;4.10;99.90;;;;;;5054040;28;20243;-39
2021/03/16 02:25:36;;;;;;;8.32;6.05;;;4.10;99.90;;;;;;5053884;28;20208;-39
2021/03/16 02:28:21;;;;;;;7.97;6.47;;;4.10;99.90;;;;;;5053756;28;20255;-39
2021/03/16 02:30:51;;;;;;;7.72;6.65;;;4.10;99.90;;;;;;5053978;28;20235;-39
2021/03/16 02:33:22;;;;;;;8.98;7.18;;;4.10;99.90;;;;;;5053693;28;20740;-39
2021/03/16 02:35:51;;;;;;;7.35;6.43;;;4.10;99.90;;;;;;5053491;28;20211;-38
2021/03/16 02:38:27;;;;;;;8.80;6.50;;;4.10;99.90;;;;;;5053937;28;20261;-38
2021/03/16 02:40:57;;;;;;;8.40;6.72;;;4.20;99.90;;;;;;5053547;28;20769;-38
2021/03/16 02:43:24;;;;;;;11.82;6.68;;;4.10;99.90;;;;;;5053652;28;20242;-39
2021/03/16 02:45:52;;;;;;;9.05;6.15;;;4.20;99.90;;;;;;5053565;28;20239;-38
2021/03/16 02:48:22;;;;;;;8.60;7.28;;;4.10;99.90;;;;;;5053450;28;20254;-40
2021/03/16 02:50:49;;;;;;;9.23;6.22;;;4.10;99.90;;;;;;5053367;28;20210;-38
2021/03/16 02:53:18;;;;;;;10.18;6.18;;;4.10;99.90;;;;;;5053611;28;20458;-39
2021/03/16 02:55:46;;;;;;;8.85;6.47;;;4.00;99.90;;;;;;5053202;28;20214;-39
2021/03/16 02:58:14;;;;;;;11.18;6.88;;;4.00;99.90;;;;;;5053268;28;20299;-38
2021/03/16 03:00:42;;;;;;;12.13;6.80;;;4.00;99.90;;;;;;5053421;28;20318;-38
2021/03/16 03:03:11;;;;;;;9.77;6.50;;;3.90;99.90;;;;;;5053335;28;20212;-38
2021/03/16 03:05:42;;;;;;;11.80;7.07;;;3.90;99.90;;;;;;5053288;28;20216;-38
2021/03/16 03:08:10;;;;;;;8.65;6.50;;;3.90;99.90;;;;;;5052042;28;20303;-38
2021/03/16 03:10:37;;;;;;;10.82;6.82;;;3.80;99.90;;;;;;5053073;28;20204;-38
2021/03/16 03:13:05;;;;;;;9.95;6.07;;;3.80;99.90;;;;;;5053045;28;20300;-38
2021/03/16 03:15:32;;;;;;;10.48;7.57;;;3.90;99.90;;;;;;5052923;28;20310;-38
2021/03/16 03:18:00;;;;;;;11.43;6.55;;;3.80;99.90;;;;;;5053125;28;20204;-38
2021/03/16 03:20:28;;;;;;;16.08;6.97;;;3.80;99.90;;;;;;5052948;28;20277;-38
2021/03/16 03:23:02;;;;;;;9.30;6.10;;;3.80;99.90;;;;;;5052988;28;20294;-38
2021/03/16 03:25:32;;;;;;;12.00;6.93;;;3.90;99.90;;;;;;5052799;28;20246;-39
2021/03/16 03:28:04;;;;;;;10.93;6.75;;;3.90;99.90;;;;;;5052672;28;20305;-38
2021/03/16 03:30:32;;;;;;;11.63;6.60;;;3.90;99.90;;;;;;5052831;28;20647;-38
2021/03/16 03:33:02;;;;;;;13.85;7.22;;;3.90;99.90;;;;;;5052616;28;20291;-38
2021/03/16 03:35:31;;;;;;;10.40;6.88;;;3.90;99.90;;;;;;5052671;28;20243;-38
2021/03/16 03:37:59;;;;;;;10.95;6.85;;;4.00;99.90;;;;;;5052535;28;20244;-38
2021/03/16 03:40:26;;;;;;;10.07;5.95;;;4.00;99.90;;;;;;5052297;28;20271;-38
2021/03/16 03:42:55;;;;;;;8.93;6.13;;;3.90;99.90;;;;;;5052568;28;20286;-38
2021/03/16 03:45:24;;;;;;;11.52;6.25;;;4.00;99.90;;;;;;5052417;28;20302;-38
2021/03/16 03:47:52;;;;;;;10.27;7.15;;;4.00;99.90;;;;;;5065875;28;20688;-38
2021/03/16 03:50:20;;;;;;;10.65;6.03;;;3.90;99.90;;;;;;5072532;28;20676;-38
2021/03/16 03:52:50;;;;;;;9.73;6.18;;;3.90;99.90;;;;;;5076338;28;20233;-39
2021/03/16 03:55:18;;;;;;;9.77;6.55;;;3.90;99.90;;;;;;5079052;28;20214;-39
2021/03/16 03:57:55;;;;;;;14.57;6.32;;;3.90;99.90;;;;;;5072059;28;20303;-38
2021/03/16 04:00:23;;;;;;;12.50;6.00;;;4.00;99.90;;;;;;5072132;28;20457;-38
2021/03/16 04:02:51;;;;;;;12.57;6.60;;;4.00;99.90;;;;;;5072523;28;20218;-38
2021/03/16 04:05:20;;;;;;;10.25;7.10;;;4.00;99.90;;;;;;5071868;28;20207;-37
2021/03/16 04:07:49;;;;;;;9.82;6.15;;;4.00;99.90;;;;;;5072053;28;20212;-38
2021/03/16 04:10:16;;;;;;;9.18;6.40;;;4.00;99.90;;;;;;5071877;28;20761;-38
2021/03/16 04:12:44;;;;;;;10.30;7.07;;;4.00;99.90;;;;;;5071740;28;20245;-38
2021/03/16 04:15:13;;;;;;;10.63;6.20;;;4.00;99.90;;;;;;5071775;28;20283;-38
2021/03/16 04:17:41;;;;;;;9.27;6.63;;;4.00;99.90;;;;;;5071857;28;20294;-39
2021/03/16 04:20:11;;;;;;;10.00;6.78;;;4.00;99.90;;;;;;5071294;28;20227;-38
2021/03/16 04:22:38;;;;;;;9.50;6.30;;;3.90;99.90;;;;;;5071880;28;20230;-38
2021/03/16 04:25:08;;;;;;;12.55;7.50;;;3.90;99.90;;;;;;5071897;28;20235;-39
2021/03/16 04:27:35;;;;;;;9.20;6.05;;;3.90;99.90;;;;;;5071605;28;20662;-40
2021/03/16 04:30:03;;;;;;;8.05;6.93;;;3.90;99.90;;;;;;5071673;28;20294;-39
2021/03/16 04:32:30;;;;;;;9.73;6.30;;;3.80;99.90;;;;;;5071607;28;20302;-37
2021/03/16 04:34:57;;;;;;;9.90;6.28;;;3.80;99.90;;;;;;5071518;28;20572;-38
2021/03/16 04:37:24;;;;;;;11.27;6.32;;;3.80;99.90;;;;;;5071723;28;20298;-38
2021/03/16 04:39:51;;;;;;;7.15;6.20;;;3.80;99.90;;;;;;5071386;28;20309;-38
2021/03/16 04:42:19;;;;;;;10.55;6.70;;;3.80;99.90;;;;;;5071509;28;20401;-37
2021/03/16 04:44:46;;;;;;;7.68;6.18;;;3.80;99.90;;;;;;5071544;28;20761;-39
2021/03/16 04:47:13;;;;;;;12.57;6.20;;;3.70;99.90;;;;;;5071149;28;20329;-39
2021/03/16 04:49:40;;;;;;;11.35;5.93;;;3.70;99.90;;;;;;5071441;28;20417;-39
2021/03/16 04:52:07;;;;;;;12.23;6.10;;;3.80;99.90;;;;;;5071413;28;20211;-39
2021/03/16 04:54:34;;;;;;;12.80;6.40;;;3.80;99.90;;;;;;5071443;28;20306;-39
2021/03/16 04:57:01;;;;;;;9.32;5.97;;;3.80;99.90;;;;;;5071317;28;20579;-39
2021/03/16 04:59:29;;;;;;;8.98;6.22;;;3.90;99.90;;;;;;5071153;28;20253;-39
2021/03/16 05:01:56;;;;;;;7.75;5.60;;;3.90;99.90;;;;;;5071778;28;20311;-39
2021/03/16 05:04:23;;;;;;;8.10;5.05;;;3.90;99.90;;;;;;5071144;28;20615;-39
2021/03/16 05:06:50;;;;;;;7.97;6.30;;;3.80;99.90;;;;;;5071311;28;20650;-40
2021/03/16 05:09:17;;;;;;;8.38;5.25;;;3.90;99.90;;;;;;5071620;28;20294;-39
2021/03/16 05:11:44;;;;;;;12.18;6.05;;;3.90;99.90;;;;;;5071345;28;20671;-39
2021/03/16 05:14:11;;;;;;;8.88;5.88;;;3.90;99.90;;;;;;5071688;28;20211;-40
2021/03/16 05:16:39;;;;;;;8.10;5.15;;;3.90;99.90;;;;;;5071720;28;20272;-39
2021/03/16 05:19:06;;;;;;;9.35;6.18;;;3.90;99.90;;;;;;5071817;28;20203;-39
2021/03/16 05:21:33;;;;;;;11.48;5.45;;;3.90;99.90;;;;;;5071098;28;20227;-39
2021/03/16 05:24:00;;;;;;;11.10;6.25;;;3.90;99.90;;;;;;5071245;28;20207;-39
2021/03/16 05:26:27;;;;;;;7.47;5.72;;;4.00;99.90;;;;;;5070928;28;20302;-39
2021/03/16 05:29:02;;;;;;;7.53;5.75;;;4.00;99.90;;;;;;5070922;28;20215;-39
2021/03/16 05:31:29;;;;;;;11.90;6.15;;;4.00;99.90;;;;;;5072510;28;20327;-38
2021/03/16 05:33:57;;;;;;;9.18;5.85;;;4.10;99.90;;;;;;5074769;28;20211;-39
2021/03/16 05:36:24;;;;;;;10.95;5.80;;;4.10;99.90;;;;;;5074821;28;20675;-37
2021/03/16 05:38:51;;;;;;;8.18;5.60;;;4.00;99.90;;;;;;5074831;28;20238;-38
2021/03/16 05:41:19;;;;;;;10.00;6.00;;;4.00;99.90;;;;;;5074510;28;20368;-38
2021/03/16 05:43:47;;;;;;;9.25;5.75;;;4.00;99.90;;;;;;5074573;28;20425;-39
2021/03/16 05:46:15;;;;;;;9.88;5.65;;;4.00;99.90;;;;;;5074717;28;20371;-39
2021/03/16 05:48:48;;;;;;;6.65;5.50;;;3.90;99.90;;;;;;5074220;28;20655;-39
2021/03/16 05:51:16;;;;;;;22.95;15.05;;;3.70;99.90;;;;;;5074606;28;20634;-39
2021/03/16 05:53:47;;;;;;;18.40;11.35;;;3.50;99.90;;;;;;5074278;28;20638;-40
2021/03/16 05:56:15;;;;;;;34.55;23.17;;;3.50;99.90;;;;;;5074448;28;20585;-39
2021/03/16 05:58:42;;;;;;;12.65;9.18;;;3.50;99.90;;;;;;5074646;28;20254;-40
2021/03/16 06:01:10;;;;;;;9.43;6.00;;;3.40;99.90;;;;;;5074530;28;20230;-40
2021/03/16 06:03:37;;;;;;;17.63;13.70;;;3.30;99.90;;;;;;5074484;28;20235;-39
2021/03/16 06:06:05;;;;;;;8.13;6.70;;;3.30;99.90;;;;;;5074355;28;20211;-40
2021/03/16 06:08:32;;;;;;;16.38;9.98;;;3.30;99.90;;;;;;5074272;28;20301;-39
2021/03/16 06:11:00;;;;;;;9.40;6.10;;;3.30;99.90;;;;;;5074153;28;20662;-39
2021/03/16 06:13:27;;;;;;;7.78;5.72;;;3.30;99.90;;;;;;5074620;28;20238;-39
2021/03/16 06:15:54;;;;;;;7.85;6.03;;;3.20;99.90;;;;;;5074345;28;20238;-39
2021/03/16 06:18:26;;;;;;;8.60;5.18;;;3.20;99.90;;;;;;5075554;28;20665;-38
2021/03/16 06:21:00;;;;;;;6.77;4.93;;;3.20;99.90;;;;;;5073954;28;20227;-38
2021/03/16 06:23:32;;;;;;;7.30;5.22;;;3.20;99.90;;;;;;5074298;28;20277;-38
2021/03/16 06:25:59;;;;;;;7.38;5.18;;;3.30;99.90;;;;;;5074156;28;20221;-37
2021/03/16 06:28:32;;;;;;;5.32;4.82;;;3.40;99.90;;;;;;5073937;28;20257;-38
2021/03/16 06:30:59;;;;;;;5.40;4.88;;;3.40;99.90;;;;;;5073445;28;20234;-38
2021/03/16 06:33:29;;;;;;;9.05;6.22;;;3.40;99.90;;;;;;5073132;28;20342;-37
2021/03/16 06:35:57;;;;;;;6.28;5.55;;;3.40;99.90;;;;;;5073461;28;20298;-37
2021/03/16 06:38:25;;;;;;;10.38;6.05;;;3.40;99.90;;;;;;5073629;28;20352;-37
2021/03/16 06:40:53;;;;;;;11.80;7.20;;;3.40;99.90;;;;;;5073370;28;20266;-37
2021/03/16 06:43:23;;;;;;;7.72;5.47;;;3.40;99.90;;;;;;5073085;28;20351;-37
2021/03/16 06:45:52;;;;;;;9.77;6.32;;;3.40;99.90;;;;;;5073149;28;20217;-37
2021/03/16 06:48:20;;;;;;;9.77;5.97;;;3.40;99.90;;;;;;5073406;28;20235;-37
2021/03/16 06:50:48;;;;;;;10.50;6.28;;;3.40;99.90;;;;;;5073254;28;20204;-37
2021/03/16 06:53:27;;;;;;;8.43;6.35;;;3.50;99.90;;;;;;5073152;28;20608;-38
2021/03/16 06:55:59;;;;;;;8.10;5.82;;;3.50;99.90;;;;;;5072978;28;20264;-37
2021/03/16 06:58:30;;;;;;;7.35;5.95;;;3.50;99.90;;;;;;5072863;28;20324;-40
2021/03/16 07:01:08;;;;;;;10.43;6.32;;;3.60;99.90;;;;;;5073211;28;20270;-39
2021/03/16 07:03:37;;;;;;;9.70;6.03;;;3.60;99.90;;;;;;5073000;28;20703;-39
2021/03/16 07:06:12;;;;;;;8.32;5.57;;;3.70;99.90;;;;;;5073019;28;20208;-38
2021/03/16 07:08:40;;;;;;;8.23;5.28;;;3.80;99.90;;;;;;5072771;28;20211;-40
2021/03/16 07:11:11;;;;;;;8.70;5.43;;;3.90;99.90;;;;;;5072902;28;20306;-40
2021/03/16 07:13:39;;;;;;;7.50;5.50;;;3.90;99.90;;;;;;5073237;28;20242;-40
2021/03/16 07:16:07;;;;;;;6.18;4.97;;;3.90;99.90;;;;;;5072699;28;20611;-40
2021/03/16 07:18:38;;;;;;;9.77;5.95;;;3.90;99.90;;;;;;5072622;28;20234;-40
2021/03/16 07:21:07;;;;;;;8.75;5.03;;;4.00;99.90;;;;;;5072526;28;20318;-40
2021/03/16 07:23:41;;;;;;;9.35;6.35;;;4.00;99.90;;;;;;5072864;28;20240;-40
2021/03/16 07:26:09;;;;;;;12.35;8.13;;;4.10;99.90;;;;;;5072833;28;20265;-39
2021/03/16 07:28:36;;;;;;;7.57;5.00;;;4.20;99.90;;;;;;5072455;28;20204;-39
2021/03/16 07:31:04;;;;;;;8.82;4.75;;;4.30;99.90;;;;;;5072036;28;20214;-38
2021/03/16 07:33:34;;;;;;;8.55;5.15;;;4.30;99.90;;;;;;5072583;28;20261;-38
2021/03/16 07:36:03;;;;;;;9.07;6.38;;;4.40;99.90;;;;;;5072622;28;20348;-38
2021/03/16 07:38:32;;;;;;;6.03;5.43;;;4.50;99.90;;;;;;5072375;28;20755;-39
2021/03/16 07:41:01;;;;;;;10.52;7.50;;;4.50;99.90;;;;;;5072003;28;20231;-38
2021/03/16 07:43:33;;;;;;;8.93;4.15;;;4.60;99.90;;;;;;5071556;28;20207;-39
2021/03/16 07:46:09;;;;;;;10.35;5.75;;;4.60;99.90;;;;;;5072438;28;20294;-38
2021/03/16 07:48:42;;;;;;;9.00;4.78;;;4.70;99.90;;;;;;5071989;28;20318;-39
2021/03/16 07:51:11;;;;;;;7.35;5.07;;;4.70;99.90;;;;;;5072063;28;20199;-38
2021/03/16 07:53:40;;;;;;;8.63;5.00;;;4.70;99.90;;;;;;5071816;28;20249;-38
2021/03/16 07:56:08;;;;;;;11.57;5.75;;;4.80;99.90;;;;;;5072682;28;20203;-39
2021/03/16 07:58:45;;;;;;;9.73;4.57;;;4.80;99.90;;;;;;5072352;28;20251;-40
2021/03/16 08:01:12;;;;;;;6.50;4.88;;;4.80;99.90;;;;;;5072472;28;20281;-40
2021/03/16 08:03:41;;;;;;;5.25;4.75;;;4.80;99.90;;;;;;5071946;28;20302;-39
2021/03/16 08:06:19;;;;;;;10.73;5.13;;;4.80;99.90;;;;;;5071832;28;20223;-39
2021/03/16 08:08:47;;;;;;;9.13;5.28;;;4.80;99.90;;;;;;5072862;28;20213;-39
2021/03/16 08:11:14;;;;;;;6.47;4.15;;;4.80;99.90;;;;;;5071965;28;20210;-40
2021/03/16 08:13:41;;;;;;;6.88;5.10;;;4.80;99.90;;;;;;5072200;28;20234;-40
2021/03/16 08:16:12;;;;;;;8.48;4.68;;;4.70;99.90;;;;;;5071858;28;20346;-40
2021/03/16 08:18:40;;;;;;;8.43;5.60;;;4.70;99.90;;;;;;5071839;28;20210;-40
2021/03/16 08:21:08;;;;;;;6.22;4.82;;;4.70;99.90;;;;;;5072441;28;20227;-39
2021/03/16 08:23:35;;;;;;;8.93;5.18;;;4.70;99.90;;;;;;5071652;28;20242;-40
2021/03/16 08:26:03;;;;;;;7.40;4.57;;;4.70;99.90;;;;;;5071730;28;20658;-40
2021/03/16 08:28:31;;;;;;;8.48;5.30;;;4.80;99.90;;;;;;5071358;28;20302;-40
2021/03/16 08:31:02;;;;;;;10.60;5.43;;;4.80;99.90;;;;;;5071516;28;20211;-40
2021/03/16 08:33:30;;;;;;;7.25;3.97;;;4.90;99.90;;;;;;5071563;28;20207;-40
2021/03/16 08:35:58;;;;;;;8.00;5.10;;;4.90;99.90;;;;;;5071522;28;20220;-40
2021/03/16 08:38:27;;;;;;;10.02;4.65;;;5.10;99.90;;;;;;5071449;28;20218;-40
2021/03/16 08:41:05;;;;;;;6.57;4.68;;;5.20;99.90;;;;;;5071531;28;20279;-40
2021/03/16 08:43:33;;;;;;;6.85;4.85;;;5.30;99.90;;;;;;5071850;28;20294;-40
2021/03/16 08:46:00;;;;;;;9.13;4.10;;;5.30;99.90;;;;;;5071347;28;20207;-40
2021/03/16 08:48:31;;;;;;;9.00;6.20;;;5.30;99.90;;;;;;5071289;28;20235;-40
2021/03/16 08:50:58;;;;;;;7.18;4.88;;;5.40;99.90;;;;;;5071079;28;20203;-41
2021/03/16 08:53:25;;;;;;;7.85;4.28;;;5.50;99.90;;;;;;5071249;28;20625;-41
2021/03/16 08:55:53;;;;;;;12.40;4.50;;;5.50;99.90;;;;;;5071101;28;20306;-40
2021/03/16 08:58:21;;;;;;;8.55;5.15;;;5.50;99.90;;;;;;5071303;28;20218;-40
2021/03/16 09:00:48;;;;;;;11.25;5.22;;;5.50;99.90;;;;;;5071046;28;20253;-40
2021/03/16 09:03:16;;;;;;;11.25;5.18;;;5.40;99.90;;;;;;5071038;28;20211;-40
2021/03/16 09:05:44;;;;;;;6.53;4.20;;;5.50;99.90;;;;;;5071353;28;20240;-40
2021/03/16 09:08:11;;;;;;;5.72;3.88;;;5.60;99.90;;;;;;5075497;28;20203;-40
2021/03/16 09:10:38;;;;;;;9.38;4.78;;;5.70;99.90;;;;;;5075444;28;20230;-40
2021/03/16 09:13:05;;;;;;;9.95;5.03;;;5.90;99.90;;;;;;5075331;28;20203;-41
2021/03/16 09:15:33;;;;;;;11.88;4.20;;;6.00;99.90;;;;;;5075121;28;20254;-40
2021/03/16 09:18:03;;;;;;;6.20;4.15;;;6.00;99.90;;;;;;5074991;28;20674;-39
2021/03/16 09:20:32;;;;;;;10.95;5.50;;;6.00;99.90;;;;;;5075218;28;20234;-39
2021/03/16 09:23:02;;;;;;;7.95;5.35;;;6.00;99.90;;;;;;5074997;28;20295;-39
2021/03/16 09:25:31;;;;;;;8.27;4.30;;;6.00;99.90;;;;;;5074746;28;20754;-39
2021/03/16 09:28:00;;;;;;;7.95;4.20;;;6.00;99.90;;;;;;5074805;28;20351;-40
2021/03/16 09:30:28;;;;;;;9.00;5.45;;;6.10;99.90;;;;;;5074658;28;20200;-40
2021/03/16 09:32:56;;;;;;;7.70;4.63;;;6.10;99.90;;;;;;5074876;28;20264;-40
2021/03/16 09:35:24;;;;;;;8.43;4.70;;;6.10;99.90;;;;;;5075282;28;20575;-40
2021/03/16 09:37:52;;;;;;;7.63;4.65;;;6.00;99.90;;;;;;5076992;28;20211;-40
2021/03/16 09:40:31;;;;;;;7.68;3.83;;;6.00;99.90;;;;;;5076659;28;20260;-40
2021/03/16 09:42:59;;;;;;;6.75;4.55;;;6.00;99.90;;;;;;5074767;28;20223;-40
2021/03/16 09:45:28;;;;;;;8.38;5.15;;;6.10;99.90;;;;;;5074707;28;20215;-41
2021/03/16 09:47:56;;;;;;;6.60;4.72;;;6.10;99.90;;;;;;5074359;28;20334;-41
2021/03/16 09:50:30;;;;;;;6.47;4.38;;;6.20;99.90;;;;;;5074848;28;20287;-39
2021/03/16 09:52:58;;;;;;;7.90;4.60;;;6.20;99.90;;;;;;5074369;28;20621;-39
2021/03/16 09:55:26;;;;;;;8.75;4.00;;;6.30;99.90;;;;;;5073722;28;20203;-40
2021/03/16 09:57:54;;;;;;;8.18;4.10;;;6.40;99.90;;;;;;5074331;28;20290;-39
2021/03/16 10:00:22;;;;;;;6.93;3.88;;;6.50;99.90;;;;;;5073901;28;20298;-39
2021/03/16 10:02:50;;;;;;;4.20;3.40;;;6.70;99.90;;;;;;5074123;28;20210;-40
2021/03/16 10:05:20;;;;;;;9.13;3.47;;;6.60;99.90;;;;;;5074090;28;20222;-40
2021/03/16 10:07:51;;;;;;;10.35;4.38;;;6.60;99.90;;;;;;5074062;28;20250;-40
2021/03/16 10:10:20;;;;;;;11.13;4.75;;;6.70;99.90;;;;;;5074382;28;20269;-39
2021/03/16 10:13:00;;;;;;;9.65;4.32;;;6.70;99.90;;;;;;5073948;28;20265;-39
2021/03/16 10:15:29;;;;;;;7.13;3.20;;;6.70;99.90;;;;;;5074078;28;20207;-39
2021/03/16 10:17:59;;;;;;;6.50;3.85;;;6.80;99.90;;;;;;5073445;28;20294;-39
2021/03/16 10:20:29;;;;;;;4.95;3.25;;;6.90;99.90;;;;;;5074210;28;20210;-40
2021/03/16 10:22:58;;;;;;;7.18;2.88;;;6.90;99.90;;;;;;5074008;28;20207;-39
2021/03/16 10:25:27;;;;;;;7.93;3.08;;;6.90;99.90;;;;;;5073907;28;20230;-39
2021/03/16 10:27:55;;;;;;;5.35;2.65;;;7.00;99.90;;;;;;5074086;28;20207;-39
2021/03/16 10:30:30;;;;;;;5.38;3.65;;;7.10;99.90;;;;;;5073870;28;20592;-39
2021/03/16 10:33:05;;;;;;;8.00;3.40;;;7.10;99.90;;;;;;5073975;28;20599;-39
2021/03/16 10:35:32;;;;;;;5.18;3.25;;;7.00;99.90;;;;;;5073916;28;20223;-39
2021/03/16 10:38:02;;;;;;;10.02;3.47;;;6.90;99.90;;;;;;5073777;28;20260;-39
2021/03/16 10:40:30;;;;;;;10.98;3.25;;;6.90;99.90;;;;;;5073401;28;20681;-39
2021/03/16 10:42:57;;;;;;;6.18;2.83;;;6.80;99.90;;;;;;5073673;28;20211;-38
2021/03/16 10:45:24;;;;;;;7.97;4.05;;;6.60;99.90;;;;;;5073505;28;20239;-40
2021/03/16 10:47:52;;;;;;;7.03;2.97;;;6.40;99.90;;;;;;5073447;28;20239;-38
2021/03/16 10:50:20;;;;;;;6.50;3.42;;;6.30;99.90;;;;;;5073700;28;20217;-40
2021/03/16 10:52:47;;;;;;;8.40;3.85;;;6.10;99.90;;;;;;5073320;28;20211;-39
2021/03/16 10:55:15;;;;;;;4.35;2.92;;;6.10;99.90;;;;;;5074101;28;20302;-40
2021/03/16 10:57:42;;;;;;;11.95;6.38;;;6.00;99.90;;;;;;5075018;28;20203;-40
2021/03/16 11:00:10;;;;;;;8.20;3.85;;;5.90;99.90;;;;;;5074954;28;20286;-39
2021/03/16 11:02:37;;;;;;;8.73;4.20;;;5.90;99.90;;;;;;5073500;28;20231;-40
2021/03/16 11:05:08;;;;;;;8.27;4.15;;;5.90;99.90;;;;;;5073201;28;20223;-40
2021/03/16 11:07:35;;;;;;;7.68;3.92;;;6.00;99.90;;;;;;5073280;28;20226;-40
2021/03/16 11:10:04;;;;;;;9.55;5.78;;;6.10;99.90;;;;;;5073146;28;20234;-40
2021/03/16 11:12:31;;;;;;;11.93;5.05;;;6.20;99.90;;;;;;5072749;28;20381;-40
2021/03/16 11:14:58;;;;;;;7.50;4.40;;;6.20;99.90;;;;;;5072915;28;20580;-39
2021/03/16 11:17:25;;;;;;;7.95;4.05;;;6.20;99.90;;;;;;5072869;28;20218;-40
2021/03/16 11:19:52;;;;;;;8.77;4.90;;;6.30;99.90;;;;;;5072768;28;20207;-39
2021/03/16 11:22:20;;;;;;;10.50;6.05;;;6.40;99.90;;;;;;5072857;28;20333;-40
2021/03/16 11:24:48;;;;;;;7.38;4.22;;;6.30;99.90;;;;;;5073427;28;20633;-40
2021/03/16 11:27:15;;;;;;;6.18;4.25;;;6.30;99.90;;;;;;5073563;28;20215;-39
2021/03/16 11:29:42;;;;;;;6.35;3.25;;;6.30;99.90;;;;;;5073013;28;20207;-40
2021/03/16 11:32:09;;;;;;;8.70;3.50;;;6.40;99.90;;;;;;5073566;28;20254;-39
2021/03/16 11:34:36;;;;;;;9.65;3.10;;;6.40;99.90;;;;;;5073220;28;20213;-40
2021/03/16 11:37:03;;;;;;;5.15;3.10;;;6.30;99.90;;;;;;5072413;28;20752;-40
2021/03/16 11:39:31;;;;;;;5.10;3.47;;;6.20;99.90;;;;;;5072295;28;20669;-40
2021/03/16 11:41:58;;;;;;;6.10;2.97;;;6.10;99.90;;;;;;5072464;28;20253;-39
2021/03/16 11:44:25;;;;;;;8.30;3.78;;;5.90;99.90;;;;;;5072508;28;20211;-40
2021/03/16 11:46:52;;;;;;;8.48;4.90;;;5.80;99.90;;;;;;5071803;28;20211;-39
2021/03/16 11:49:20;;;;;;;6.85;4.50;;;5.80;99.90;;;;;;5071796;28;20654;-45
2021/03/16 11:51:47;;;;;;;6.65;3.38;;;5.70;99.90;;;;;;5072096;28;20227;-39
2021/03/16 11:54:14;;;;;;;6.38;3.83;;;5.70;99.90;;;;;;5071903;28;20214;-39
2021/03/16 11:56:41;;;;;;;5.20;4.00;;;5.70;99.90;;;;;;5072066;28;20549;-42
2021/03/16 11:59:08;;;;;;;9.93;5.15;;;5.70;99.90;;;;;;5071870;28;20730;-38
2021/03/16 12:01:36;;;;;;;5.88;3.78;;;5.70;99.90;;;;;;5071756;28;20261;-44
2021/03/16 12:04:13;;;;;;;7.82;3.78;;;5.70;99.90;;;;;;5071565;28;20487;-39
2021/03/16 12:06:41;;;;;;;4.68;4.13;;;5.70;99.90;;;;;;5071657;28;20229;-39
2021/03/16 12:09:08;;;;;;;7.78;3.85;;;5.70;99.90;;;;;;5071855;28;20298;-39
2021/03/16 12:11:36;;;;;;;6.38;2.88;;;5.80;99.90;;;;;;5071663;28;20310;-41
2021/03/16 12:14:04;;;;;;;6.65;2.95;;;5.90;99.90;;;;;;5071788;28;20257;-40
2021/03/16 12:16:31;;;;;;;7.35;3.35;;;5.90;99.90;;;;;;5071658;28;20260;-40
2021/03/16 12:18:58;;;;;;;7.50;3.08;;;6.00;99.90;;;;;;5071709;28;20290;-39
2021/03/16 12:21:25;;;;;;;7.57;3.60;;;6.10;99.90;;;;;;5071355;28;20646;-40
2021/03/16 12:23:52;;;;;;;6.97;3.30;;;6.30;99.90;;;;;;5071596;28;20208;-40
2021/03/16 12:26:19;;;;;;;5.28;3.78;;;6.40;99.90;;;;;;5071791;28;20573;-40
2021/03/16 12:28:47;;;;;;;5.90;3.75;;;6.70;99.90;;;;;;5071699;28;20302;-40
2021/03/16 12:31:15;;;;;;;5.88;3.53;;;7.00;99.50;;;;;;5071482;28;20238;-40
2021/03/16 12:33:43;;;;;;;6.57;3.05;;;7.10;99.30;;;;;;5071524;28;20307;-38
2021/03/16 12:36:11;;;;;;;5.82;2.75;;;7.10;99.00;;;;;;5071350;28;20627;-39
2021/03/16 12:38:38;;;;;;;5.50;3.20;;;7.10;98.60;;;;;;5071415;28;20298;-39
2021/03/16 12:41:05;;;;;;;6.85;2.95;;;7.10;98.70;;;;;;5071185;28;20314;-39
2021/03/16 12:43:32;;;;;;;6.13;3.08;;;7.10;98.40;;;;;;5071084;28;20421;-39
2021/03/16 12:45:59;;;;;;;7.68;3.13;;;7.10;98.30;;;;;;5071559;28;20613;-39
2021/03/16 12:48:27;;;;;;;5.57;3.20;;;7.00;98.30;;;;;;5071227;28;20247;-40
2021/03/16 12:50:55;;;;;;;7.63;2.80;;;7.00;98.30;;;;;;5071406;28;20210;-39
2021/03/16 12:53:22;;;;;;;7.53;2.90;;;7.10;98.30;;;;;;5071239;28;20575;-39
2021/03/16 12:55:49;;;;;;;7.03;3.30;;;7.20;98.10;;;;;;5071153;28;20302;-39
2021/03/16 12:58:16;;;;;;;7.03;3.45;;;7.30;98.00;;;;;;5072327;28;20302;-39
2021/03/16 13:00:43;;;;;;;4.68;3.17;;;7.30;97.60;;;;;;5073274;28;20212;-40
2021/03/16 13:03:11;;;;;;;8.07;3.55;;;7.30;97.70;;;;;;5071961;28;20211;-40
2021/03/16 13:05:39;;;;;;;5.45;3.42;;;7.30;97.70;;;;;;5071288;28;20569;-39